sensor_id;sensor_type;location;lat;lon;timestamp;pressure;altitude;pressure_sealevel;temperature;humidity
43488;BME280;29078;41.932;25.554;2023-07-31T00:01:16;98843.09;;;27.09;36.54
43488;BME280;29078;41.932;25.554;2023-07-31T00:03:41;98841.19;;;27.10;36.21
43488;BME280;29078;41.932;25.554;2023-07-31T00:06:06;98834.25;;;27.04;37.08
43488;BME280;29078;41.932;25.554;2023-07-31T00:08:32;98840.59;;;26.99;36.14
43488;BME280;29078;41.932;25.554;2023-07-31T00:10:57;98836.97;;;26.90;36.22
43488;BME280;29078;41.932;25.554;2023-07-31T00:13:22;98841.88;;;26.88;37.40
43488;BME280;29078;41.932;25.554;2023-07-31T00:15:48;98833.25;;;26.86;35.29
43488;BME280;29078;41.932;25.554;2023-07-31T00:18:13;98841.84;;;26.74;36.84
43488;BME280;29078;41.932;25.554;2023-07-31T00:20:39;98834.53;;;26.75;36.55
43488;BME280;29078;41.932;25.554;2023-07-31T00:23:04;98848.38;;;26.73;37.82
43488;BME280;29078;41.932;25.554;2023-07-31T00:25:29;98857.00;;;26.75;38.93
43488;BME280;29078;41.932;25.554;2023-07-31T00:27:54;98862.22;;;26.72;38.86
43488;BME280;29078;41.932;25.554;2023-07-31T00:30:20;98873.66;;;26.69;38.99
43488;BME280;29078;41.932;25.554;2023-07-31T00:32:45;98881.06;;;26.63;38.04
43488;BME280;29078;41.932;25.554;2023-07-31T00:35:10;98885.78;;;26.57;39.00
43488;BME280;29078;41.932;25.554;2023-07-31T00:37:35;98888.47;;;26.57;38.98
43488;BME280;29078;41.932;25.554;2023-07-31T00:40:01;98890.19;;;26.53;38.40
43488;BME280;29078;41.932;25.554;2023-07-31T00:42:28;98892.69;;;26.50;40.75
43488;BME280;29078;41.932;25.554;2023-07-31T00:44:53;98901.91;;;26.49;39.11
43488;BME280;29078;41.932;25.554;2023-07-31T00:47:19;98909.22;;;26.48;40.02
43488;BME280;29078;41.932;25.554;2023-07-31T00:49:44;98906.41;;;26.53;39.53
43488;BME280;29078;41.932;25.554;2023-07-31T00:52:09;98913.25;;;26.51;38.95
43488;BME280;29078;41.932;25.554;2023-07-31T00:54:35;98915.44;;;26.49;39.19
43488;BME280;29078;41.932;25.554;2023-07-31T00:57:00;98919.03;;;26.44;39.52
43488;BME280;29078;41.932;25.554;2023-07-31T00:59:25;98912.19;;;26.33;42.67
43488;BME280;29078;41.932;25.554;2023-07-31T01:01:51;98907.34;;;26.30;41.47
43488;BME280;29078;41.932;25.554;2023-07-31T01:04:17;98911.38;;;26.33;40.00
43488;BME280;29078;41.932;25.554;2023-07-31T01:12:00;98899.69;;;26.18;40.97
43488;BME280;29078;41.932;25.554;2023-07-31T01:14:26;98903.72;;;26.21;39.94
43488;BME280;29078;41.932;25.554;2023-07-31T01:16:51;98907.09;;;26.13;43.45
43488;BME280;29078;41.932;25.554;2023-07-31T01:19:17;98913.00;;;26.15;39.52
43488;BME280;29078;41.932;25.554;2023-07-31T01:29:32;98911.56;;;26.04;43.71
43488;BME280;29078;41.932;25.554;2023-07-31T01:32:01;98912.13;;;26.01;42.22
43488;BME280;29078;41.932;25.554;2023-07-31T01:34:26;98915.13;;;25.99;44.43
43488;BME280;29078;41.932;25.554;2023-07-31T01:36:53;98924.84;;;26.00;42.27
43488;BME280;29078;41.932;25.554;2023-07-31T01:39:20;98931.88;;;26.01;43.09
43488;BME280;29078;41.932;25.554;2023-07-31T01:41:45;98935.63;;;26.05;43.24
43488;BME280;29078;41.932;25.554;2023-07-31T01:44:10;98927.78;;;26.04;41.76
43488;BME280;29078;41.932;25.554;2023-07-31T01:46:36;98923.41;;;26.08;43.19
43488;BME280;29078;41.932;25.554;2023-07-31T01:49:01;98924.50;;;26.07;43.20
43488;BME280;29078;41.932;25.554;2023-07-31T01:51:26;98924.78;;;26.05;42.40
43488;BME280;29078;41.932;25.554;2023-07-31T01:53:51;98933.22;;;26.04;44.21
43488;BME280;29078;41.932;25.554;2023-07-31T01:56:17;98938.31;;;26.05;43.01
43488;BME280;29078;41.932;25.554;2023-07-31T01:58:42;98935.91;;;26.04;44.43
43488;BME280;29078;41.932;25.554;2023-07-31T02:01:07;98932.09;;;26.05;44.50
43488;BME280;29078;41.932;25.554;2023-07-31T02:03:32;98930.22;;;26.05;43.28
43488;BME280;29078;41.932;25.554;2023-07-31T02:05:58;98928.59;;;26.04;44.58
43488;BME280;29078;41.932;25.554;2023-07-31T02:08:23;98931.59;;;26.03;42.62
43488;BME280;29078;41.932;25.554;2023-07-31T02:10:48;98926.75;;;26.00;43.67
43488;BME280;29078;41.932;25.554;2023-07-31T02:13:13;98922.13;;;26.00;42.17
43488;BME280;29078;41.932;25.554;2023-07-31T02:15:39;98923.03;;;25.95;45.55
43488;BME280;29078;41.932;25.554;2023-07-31T02:18:04;98928.72;;;25.94;43.57
43488;BME280;29078;41.932;25.554;2023-07-31T02:20:29;98931.66;;;25.97;45.23
43488;BME280;29078;41.932;25.554;2023-07-31T02:22:54;98935.16;;;25.98;44.78
43488;BME280;29078;41.932;25.554;2023-07-31T02:25:20;98935.66;;;26.00;44.54
43488;BME280;29078;41.932;25.554;2023-07-31T02:27:45;98934.88;;;26.00;44.33
43488;BME280;29078;41.932;25.554;2023-07-31T02:30:10;98932.69;;;26.02;44.25
43488;BME280;29078;41.932;25.554;2023-07-31T02:32:36;98933.75;;;26.01;45.44
43488;BME280;29078;41.932;25.554;2023-07-31T02:35:01;98932.44;;;25.98;43.69
43488;BME280;29078;41.932;25.554;2023-07-31T02:37:26;98934.31;;;26.03;44.06
43488;BME280;29078;41.932;25.554;2023-07-31T02:39:53;98930.56;;;25.98;44.42
43488;BME280;29078;41.932;25.554;2023-07-31T02:42:18;98926.59;;;25.91;42.46
43488;BME280;29078;41.932;25.554;2023-07-31T02:44:44;98926.38;;;25.87;43.36
43488;BME280;29078;41.932;25.554;2023-07-31T02:47:09;98933.56;;;25.78;43.85
43488;BME280;29078;41.932;25.554;2023-07-31T02:49:34;98937.72;;;25.71;41.87
43488;BME280;29078;41.932;25.554;2023-07-31T02:51:59;98936.75;;;25.61;44.73
43488;BME280;29078;41.932;25.554;2023-07-31T02:54:25;98939.78;;;25.55;44.33
43488;BME280;29078;41.932;25.554;2023-07-31T02:56:50;98935.56;;;25.49;44.73
43488;BME280;29078;41.932;25.554;2023-07-31T02:59:16;98935.34;;;25.45;45.65
43488;BME280;29078;41.932;25.554;2023-07-31T03:01:41;98933.28;;;25.37;45.27
43488;BME280;29078;41.932;25.554;2023-07-31T03:04:07;98923.34;;;25.32;44.88
43488;BME280;29078;41.932;25.554;2023-07-31T03:06:32;98922.31;;;25.28;44.62
43488;BME280;29078;41.932;25.554;2023-07-31T03:08:57;98924.19;;;25.28;45.19
43488;BME280;29078;41.932;25.554;2023-07-31T03:11:22;98931.50;;;25.27;45.10
43488;BME280;29078;41.932;25.554;2023-07-31T03:13:48;98940.22;;;25.19;45.53
43488;BME280;29078;41.932;25.554;2023-07-31T03:16:13;98937.56;;;25.14;44.76
43488;BME280;29078;41.932;25.554;2023-07-31T03:18:38;98933.72;;;25.20;44.45
43488;BME280;29078;41.932;25.554;2023-07-31T03:21:04;98931.25;;;25.24;44.81
43488;BME280;29078;41.932;25.554;2023-07-31T03:23:29;98933.94;;;25.24;44.28
43488;BME280;29078;41.932;25.554;2023-07-31T03:25:55;98942.13;;;25.19;43.70
43488;BME280;29078;41.932;25.554;2023-07-31T03:28:20;98949.47;;;25.13;43.58
43488;BME280;29078;41.932;25.554;2023-07-31T03:30:45;98955.75;;;25.09;44.25
43488;BME280;29078;41.932;25.554;2023-07-31T03:33:10;98952.81;;;25.05;43.70
43488;BME280;29078;41.932;25.554;2023-07-31T03:35:36;98955.28;;;25.01;45.35
43488;BME280;29078;41.932;25.554;2023-07-31T03:38:01;98957.19;;;24.96;43.38
43488;BME280;29078;41.932;25.554;2023-07-31T03:40:27;98963.47;;;24.91;44.52
43488;BME280;29078;41.932;25.554;2023-07-31T03:42:52;98954.50;;;24.96;43.50
43488;BME280;29078;41.932;25.554;2023-07-31T03:45:17;98951.38;;;24.84;44.40
43488;BME280;29078;41.932;25.554;2023-07-31T03:47:42;98945.13;;;24.88;44.56
43488;BME280;29078;41.932;25.554;2023-07-31T03:50:08;98949.38;;;24.94;43.86
43488;BME280;29078;41.932;25.554;2023-07-31T03:52:33;98957.75;;;24.98;44.28
43488;BME280;29078;41.932;25.554;2023-07-31T03:54:58;98953.47;;;24.92;45.88
43488;BME280;29078;41.932;25.554;2023-07-31T03:57:23;98953.22;;;24.88;45.42
43488;BME280;29078;41.932;25.554;2023-07-31T03:59:49;98948.63;;;24.89;45.32
43488;BME280;29078;41.932;25.554;2023-07-31T04:02:14;98941.84;;;24.91;45.61
43488;BME280;29078;41.932;25.554;2023-07-31T04:04:39;98939.66;;;24.93;45.09
43488;BME280;29078;41.932;25.554;2023-07-31T04:07:04;98939.91;;;24.97;44.87
43488;BME280;29078;41.932;25.554;2023-07-31T04:09:31;98934.47;;;25.02;46.24
43488;BME280;29078;41.932;25.554;2023-07-31T04:11:56;98942.59;;;24.97;45.29
43488;BME280;29078;41.932;25.554;2023-07-31T04:14:21;98947.50;;;24.95;45.90
43488;BME280;29078;41.932;25.554;2023-07-31T04:16:47;98952.06;;;24.99;45.19
43488;BME280;29078;41.932;25.554;2023-07-31T04:19:12;98951.19;;;25.04;44.25
43488;BME280;29078;41.932;25.554;2023-07-31T04:21:41;98954.13;;;25.08;45.95
43488;BME280;29078;41.932;25.554;2023-07-31T04:24:06;98954.72;;;25.05;45.80
43488;BME280;29078;41.932;25.554;2023-07-31T04:26:31;98957.63;;;25.08;44.95
43488;BME280;29078;41.932;25.554;2023-07-31T04:28:57;98961.59;;;25.16;45.67
43488;BME280;29078;41.932;25.554;2023-07-31T04:31:22;98960.22;;;25.18;45.50
43488;BME280;29078;41.932;25.554;2023-07-31T04:33:47;98969.06;;;25.24;44.29
43488;BME280;29078;41.932;25.554;2023-07-31T04:36:12;98963.16;;;25.22;44.43
43488;BME280;29078;41.932;25.554;2023-07-31T04:38:38;98970.94;;;25.28;45.72
43488;BME280;29078;41.932;25.554;2023-07-31T04:41:03;98971.69;;;25.34;44.97
43488;BME280;29078;41.932;25.554;2023-07-31T04:43:30;98972.44;;;25.40;44.90
43488;BME280;29078;41.932;25.554;2023-07-31T04:45:55;98978.13;;;25.38;45.07
43488;BME280;29078;41.932;25.554;2023-07-31T04:48:21;98984.78;;;25.46;44.66
43488;BME280;29078;41.932;25.554;2023-07-31T04:50:46;98989.63;;;25.49;43.94
43488;BME280;29078;41.932;25.554;2023-07-31T04:53:11;98994.16;;;25.53;43.38
43488;BME280;29078;41.932;25.554;2023-07-31T04:55:36;98991.63;;;25.62;44.30
43488;BME280;29078;41.932;25.554;2023-07-31T04:58:02;98993.19;;;25.68;43.26
43488;BME280;29078;41.932;25.554;2023-07-31T05:00:27;98995.31;;;25.71;42.86
43488;BME280;29078;41.932;25.554;2023-07-31T05:02:52;98992.59;;;25.71;43.25
43488;BME280;29078;41.932;25.554;2023-07-31T05:05:17;98993.94;;;25.74;42.71
43488;BME280;29078;41.932;25.554;2023-07-31T05:07:43;98992.59;;;25.71;42.81
43488;BME280;29078;41.932;25.554;2023-07-31T05:10:08;99004.28;;;25.67;43.74
43488;BME280;29078;41.932;25.554;2023-07-31T05:12:33;99005.78;;;25.54;44.00
43488;BME280;29078;41.932;25.554;2023-07-31T05:14:59;99009.50;;;25.58;43.10
43488;BME280;29078;41.932;25.554;2023-07-31T05:17:24;99023.72;;;25.69;43.05
43488;BME280;29078;41.932;25.554;2023-07-31T05:19:49;99046.63;;;25.76;43.43
43488;BME280;29078;41.932;25.554;2023-07-31T05:22:14;99057.72;;;25.75;43.49
43488;BME280;29078;41.932;25.554;2023-07-31T05:24:40;99066.34;;;25.77;43.21
43488;BME280;29078;41.932;25.554;2023-07-31T05:27:05;99059.22;;;25.86;43.18
43488;BME280;29078;41.932;25.554;2023-07-31T05:29:30;99063.75;;;25.90;43.32
43488;BME280;29078;41.932;25.554;2023-07-31T05:31:56;99075.09;;;25.92;43.10
43488;BME280;29078;41.932;25.554;2023-07-31T05:34:21;99072.28;;;25.79;46.52
43488;BME280;29078;41.932;25.554;2023-07-31T05:36:46;99081.94;;;25.85;44.92
43488;BME280;29078;41.932;25.554;2023-07-31T05:39:11;99088.00;;;25.77;45.72
43488;BME280;29078;41.932;25.554;2023-07-31T05:41:37;99097.31;;;25.65;46.50
43488;BME280;29078;41.932;25.554;2023-07-31T05:44:02;99089.72;;;25.68;47.44
43488;BME280;29078;41.932;25.554;2023-07-31T05:46:27;99086.75;;;25.64;47.14
43488;BME280;29078;41.932;25.554;2023-07-31T05:48:53;99091.34;;;25.69;45.88
43488;BME280;29078;41.932;25.554;2023-07-31T05:51:18;99104.13;;;25.58;48.47
43488;BME280;29078;41.932;25.554;2023-07-31T05:53:43;99101.47;;;25.53;48.33
43488;BME280;29078;41.932;25.554;2023-07-31T05:56:09;99091.88;;;25.42;49.88
43488;BME280;29078;41.932;25.554;2023-07-31T05:58:34;99093.53;;;25.38;47.29
43488;BME280;29078;41.932;25.554;2023-07-31T06:00:59;99092.81;;;25.27;47.22
43488;BME280;29078;41.932;25.554;2023-07-31T06:03:24;99096.69;;;25.16;48.97
43488;BME280;29078;41.932;25.554;2023-07-31T06:05:50;99097.78;;;25.15;48.83
43488;BME280;29078;41.932;25.554;2023-07-31T06:08:15;99101.34;;;25.10;49.04
43488;BME280;29078;41.932;25.554;2023-07-31T06:10:40;99107.06;;;25.03;52.42
43488;BME280;29078;41.932;25.554;2023-07-31T06:13:06;99110.63;;;24.99;50.89
43488;BME280;29078;41.932;25.554;2023-07-31T06:15:31;99117.97;;;24.88;49.98
43488;BME280;29078;41.932;25.554;2023-07-31T06:17:56;99117.31;;;24.67;51.94
43488;BME280;29078;41.932;25.554;2023-07-31T06:20:22;99114.16;;;24.55;54.10
43488;BME280;29078;41.932;25.554;2023-07-31T06:22:48;99117.41;;;24.47;54.52
43488;BME280;29078;41.932;25.554;2023-07-31T06:25:13;99112.34;;;24.35;57.91
43488;BME280;29078;41.932;25.554;2023-07-31T06:27:38;99115.63;;;24.27;55.95
43488;BME280;29078;41.932;25.554;2023-07-31T06:30:03;99111.56;;;24.25;56.53
43488;BME280;29078;41.932;25.554;2023-07-31T06:32:29;99119.38;;;24.26;55.16
43488;BME280;29078;41.932;25.554;2023-07-31T06:34:55;99115.34;;;24.29;55.42
43488;BME280;29078;41.932;25.554;2023-07-31T06:37:20;99115.31;;;24.34;53.71
43488;BME280;29078;41.932;25.554;2023-07-31T06:39:45;99109.38;;;24.37;52.94
43488;BME280;29078;41.932;25.554;2023-07-31T06:42:10;99100.44;;;24.42;53.36
43488;BME280;29078;41.932;25.554;2023-07-31T06:44:36;99104.19;;;24.46;56.67
43488;BME280;29078;41.932;25.554;2023-07-31T06:47:01;99102.31;;;24.46;56.74
43488;BME280;29078;41.932;25.554;2023-07-31T06:49:26;99097.19;;;24.45;56.80
43488;BME280;29078;41.932;25.554;2023-07-31T06:51:51;99099.88;;;24.45;55.85
43488;BME280;29078;41.932;25.554;2023-07-31T06:54:17;99103.34;;;24.50;54.90
43488;BME280;29078;41.932;25.554;2023-07-31T06:56:42;99099.00;;;24.59;56.49
43488;BME280;29078;41.932;25.554;2023-07-31T06:59:07;99102.47;;;24.65;55.10
43488;BME280;29078;41.932;25.554;2023-07-31T07:01:33;99112.19;;;24.66;57.00
43488;BME280;29078;41.932;25.554;2023-07-31T07:03:58;99109.72;;;24.69;55.34
43488;BME280;29078;41.932;25.554;2023-07-31T07:06:23;99104.09;;;24.66;53.86
43488;BME280;29078;41.932;25.554;2023-07-31T07:08:48;99107.88;;;24.65;56.88
43488;BME280;29078;41.932;25.554;2023-07-31T07:11:14;99110.31;;;24.61;55.67
43488;BME280;29078;41.932;25.554;2023-07-31T07:13:39;99111.13;;;24.62;56.61
43488;BME280;29078;41.932;25.554;2023-07-31T07:16:04;99111.13;;;24.62;56.63
43488;BME280;29078;41.932;25.554;2023-07-31T07:18:29;99109.53;;;24.61;56.01
43488;BME280;29078;41.932;25.554;2023-07-31T07:20:56;99108.16;;;24.63;58.00
43488;BME280;29078;41.932;25.554;2023-07-31T07:23:23;99107.69;;;24.46;56.77
43488;BME280;29078;41.932;25.554;2023-07-31T07:25:48;99109.88;;;24.44;54.75
43488;BME280;29078;41.932;25.554;2023-07-31T07:28:13;99113.13;;;24.41;55.69
43488;BME280;29078;41.932;25.554;2023-07-31T07:30:39;99112.56;;;24.44;56.98
43488;BME280;29078;41.932;25.554;2023-07-31T07:33:04;99112.81;;;24.48;55.58
43488;BME280;29078;41.932;25.554;2023-07-31T07:35:30;99117.94;;;24.54;56.39
43488;BME280;29078;41.932;25.554;2023-07-31T07:37:55;99117.38;;;24.52;57.71
43488;BME280;29078;41.932;25.554;2023-07-31T07:40:21;99118.75;;;24.55;56.06
43488;BME280;29078;41.932;25.554;2023-07-31T07:42:47;99107.38;;;24.58;57.03
43488;BME280;29078;41.932;25.554;2023-07-31T07:45:12;99110.28;;;24.66;55.45
43488;BME280;29078;41.932;25.554;2023-07-31T07:47:38;99111.34;;;24.70;57.78
43488;BME280;29078;41.932;25.554;2023-07-31T07:50:03;99111.00;;;24.82;54.55
43488;BME280;29078;41.932;25.554;2023-07-31T07:52:29;99113.03;;;24.95;54.81
43488;BME280;29078;41.932;25.554;2023-07-31T07:54:54;99115.97;;;25.04;55.36
43488;BME280;29078;41.932;25.554;2023-07-31T07:57:20;99111.28;;;25.15;56.13
43488;BME280;29078;41.932;25.554;2023-07-31T07:59:45;99110.19;;;25.16;55.28
43488;BME280;29078;41.932;25.554;2023-07-31T08:02:10;99101.53;;;25.19;54.98
43488;BME280;29078;41.932;25.554;2023-07-31T08:04:35;99103.34;;;25.28;55.94
43488;BME280;29078;41.932;25.554;2023-07-31T08:07:01;99101.63;;;25.38;55.43
43488;BME280;29078;41.932;25.554;2023-07-31T08:09:26;99101.53;;;25.48;55.46
43488;BME280;29078;41.932;25.554;2023-07-31T08:11:54;99103.91;;;25.54;54.31
43488;BME280;29078;41.932;25.554;2023-07-31T08:14:22;99090.56;;;25.63;54.27
43488;BME280;29078;41.932;25.554;2023-07-31T08:16:47;99092.94;;;25.70;54.65
43488;BME280;29078;41.932;25.554;2023-07-31T08:19:12;99095.81;;;25.78;52.41
43488;BME280;29078;41.932;25.554;2023-07-31T08:21:37;99093.22;;;25.92;52.75
43488;BME280;29078;41.932;25.554;2023-07-31T08:24:03;99102.56;;;26.05;55.53
43488;BME280;29078;41.932;25.554;2023-07-31T08:26:28;99108.34;;;26.17;54.80
43488;BME280;29078;41.932;25.554;2023-07-31T08:28:53;99115.22;;;26.28;53.94
43488;BME280;29078;41.932;25.554;2023-07-31T08:31:19;99108.38;;;26.36;55.06
43488;BME280;29078;41.932;25.554;2023-07-31T08:33:44;99102.84;;;26.46;51.98
43488;BME280;29078;41.932;25.554;2023-07-31T08:36:09;99110.00;;;26.55;51.91
43488;BME280;29078;41.932;25.554;2023-07-31T08:38:34;99100.03;;;26.70;52.81
43488;BME280;29078;41.932;25.554;2023-07-31T08:41:00;99104.34;;;26.89;52.68
43488;BME280;29078;41.932;25.554;2023-07-31T08:43:26;99109.69;;;26.95;52.32
43488;BME280;29078;41.932;25.554;2023-07-31T08:45:51;99101.94;;;27.07;53.51
43488;BME280;29078;41.932;25.554;2023-07-31T08:48:17;99106.16;;;27.13;51.44
43488;BME280;29078;41.932;25.554;2023-07-31T08:50:42;99102.63;;;27.12;50.87
43488;BME280;29078;41.932;25.554;2023-07-31T08:53:08;99106.38;;;27.16;51.11
43488;BME280;29078;41.932;25.554;2023-07-31T08:55:33;99119.94;;;27.30;51.51
43488;BME280;29078;41.932;25.554;2023-07-31T08:57:59;99111.16;;;27.52;48.16
43488;BME280;29078;41.932;25.554;2023-07-31T09:00:25;99104.47;;;27.63;49.35
43488;BME280;29078;41.932;25.554;2023-07-31T09:03:03;99103.56;;;27.81;49.71
43488;BME280;29078;41.932;25.554;2023-07-31T09:05:33;99105.66;;;28.12;49.60
43488;BME280;29078;41.932;25.554;2023-07-31T09:08:00;99106.88;;;28.33;47.99
43488;BME280;29078;41.932;25.554;2023-07-31T09:10:25;99100.19;;;28.53;46.72
43488;BME280;29078;41.932;25.554;2023-07-31T09:12:51;99107.16;;;28.68;47.38
43488;BME280;29078;41.932;25.554;2023-07-31T09:15:17;99106.31;;;28.81;46.50
43488;BME280;29078;41.932;25.554;2023-07-31T09:17:42;99105.38;;;28.99;47.17
43488;BME280;29078;41.932;25.554;2023-07-31T09:20:20;99094.28;;;29.18;47.37
43488;BME280;29078;41.932;25.554;2023-07-31T09:22:46;99097.06;;;29.27;46.51
43488;BME280;29078;41.932;25.554;2023-07-31T09:30:19;99086.81;;;29.94;44.30
43488;BME280;29078;41.932;25.554;2023-07-31T09:32:45;99100.00;;;30.10;44.19
43488;BME280;29078;41.932;25.554;2023-07-31T09:37:42;99083.41;;;30.54;43.26
43488;BME280;29078;41.932;25.554;2023-07-31T09:40:07;99087.91;;;30.50;43.51
43488;BME280;29078;41.932;25.554;2023-07-31T09:42:32;99086.91;;;30.46;44.15
43488;BME280;29078;41.932;25.554;2023-07-31T09:45:08;99086.00;;;30.59;43.26
43488;BME280;29078;41.932;25.554;2023-07-31T09:47:34;99084.69;;;30.83;42.76
43488;BME280;29078;41.932;25.554;2023-07-31T09:49:59;99086.75;;;30.94;42.56
43488;BME280;29078;41.932;25.554;2023-07-31T09:52:25;99088.72;;;30.77;42.81
43488;BME280;29078;41.932;25.554;2023-07-31T09:54:51;99085.66;;;30.78;42.69
43488;BME280;29078;41.932;25.554;2023-07-31T09:57:16;99088.06;;;30.88;42.88
43488;BME280;29078;41.932;25.554;2023-07-31T09:59:42;99090.09;;;31.17;42.15
43488;BME280;29078;41.932;25.554;2023-07-31T10:02:08;99088.81;;;31.32;42.07
43488;BME280;29078;41.932;25.554;2023-07-31T10:04:38;99089.69;;;31.53;41.49
43488;BME280;29078;41.932;25.554;2023-07-31T10:07:03;99088.94;;;31.82;41.43
43488;BME280;29078;41.932;25.554;2023-07-31T10:09:29;99087.09;;;31.95;40.39
43488;BME280;29078;41.932;25.554;2023-07-31T10:11:59;99081.28;;;32.05;40.35
43488;BME280;29078;41.932;25.554;2023-07-31T10:14:25;99072.78;;;32.28;40.03
43488;BME280;29078;41.932;25.554;2023-07-31T10:16:51;99074.72;;;32.48;39.97
43488;BME280;29078;41.932;25.554;2023-07-31T10:19:18;99070.34;;;32.68;38.89
43488;BME280;29078;41.932;25.554;2023-07-31T10:21:43;99076.50;;;32.65;39.53
43488;BME280;29078;41.932;25.554;2023-07-31T10:24:09;99079.97;;;32.74;39.30
43488;BME280;29078;41.932;25.554;2023-07-31T10:26:34;99073.44;;;32.66;39.06
43488;BME280;29078;41.932;25.554;2023-07-31T10:29:00;99066.97;;;32.71;38.84
43488;BME280;29078;41.932;25.554;2023-07-31T10:31:26;99066.63;;;32.93;38.37
43488;BME280;29078;41.932;25.554;2023-07-31T10:33:52;99054.13;;;33.16;38.02
43488;BME280;29078;41.932;25.554;2023-07-31T10:36:19;99061.56;;;33.28;37.50
43488;BME280;29078;41.932;25.554;2023-07-31T10:38:45;99053.50;;;33.32;37.62
43488;BME280;29078;41.932;25.554;2023-07-31T10:41:10;99048.94;;;33.36;37.33
43488;BME280;29078;41.932;25.554;2023-07-31T10:43:36;99045.75;;;33.34;37.09
43488;BME280;29078;41.932;25.554;2023-07-31T10:46:06;99047.38;;;33.47;36.99
43488;BME280;29078;41.932;25.554;2023-07-31T10:48:33;99045.22;;;33.53;36.71
43488;BME280;29078;41.932;25.554;2023-07-31T10:50:58;99035.97;;;33.69;36.42
43488;BME280;29078;41.932;25.554;2023-07-31T10:53:29;99029.25;;;33.91;36.34
43488;BME280;29078;41.932;25.554;2023-07-31T10:55:57;99023.31;;;33.89;35.85
43488;BME280;29078;41.932;25.554;2023-07-31T10:58:23;99023.41;;;33.93;36.32
43488;BME280;29078;41.932;25.554;2023-07-31T11:00:48;99020.09;;;33.99;35.72
43488;BME280;29078;41.932;25.554;2023-07-31T11:03:14;99016.44;;;33.95;35.69
43488;BME280;29078;41.932;25.554;2023-07-31T11:05:40;99014.50;;;33.96;35.47
43488;BME280;29078;41.932;25.554;2023-07-31T11:08:13;99006.38;;;33.99;35.95
43488;BME280;29078;41.932;25.554;2023-07-31T11:10:38;99010.03;;;34.03;35.65
43488;BME280;29078;41.932;25.554;2023-07-31T11:13:06;99006.47;;;34.15;35.55
43488;BME280;29078;41.932;25.554;2023-07-31T11:15:31;99006.31;;;34.36;34.67
43488;BME280;29078;41.932;25.554;2023-07-31T11:17:57;98999.38;;;34.54;34.44
43488;BME280;29078;41.932;25.554;2023-07-31T11:20:25;98993.22;;;34.73;34.50
43488;BME280;29078;41.932;25.554;2023-07-31T11:22:50;98997.75;;;34.81;33.94
43488;BME280;29078;41.932;25.554;2023-07-31T11:25:16;98996.69;;;34.98;33.78
43488;BME280;29078;41.932;25.554;2023-07-31T11:27:41;99002.97;;;35.14;34.04
43488;BME280;29078;41.932;25.554;2023-07-31T11:30:07;98991.81;;;35.23;33.29
43488;BME280;29078;41.932;25.554;2023-07-31T11:32:32;98995.44;;;35.43;31.94
43488;BME280;29078;41.932;25.554;2023-07-31T11:34:57;98985.94;;;35.56;33.07
43488;BME280;29078;41.932;25.554;2023-07-31T11:37:23;98987.19;;;35.58;32.11
43488;BME280;29078;41.932;25.554;2023-07-31T11:40:00;98980.81;;;35.54;31.97
43488;BME280;29078;41.932;25.554;2023-07-31T11:42:26;98970.03;;;35.46;32.66
43488;BME280;29078;41.932;25.554;2023-07-31T11:44:51;98963.81;;;35.49;33.03
43488;BME280;29078;41.932;25.554;2023-07-31T11:47:16;98957.47;;;35.64;31.98
43488;BME280;29078;41.932;25.554;2023-07-31T11:49:43;98955.63;;;35.84;32.13
43488;BME280;29078;41.932;25.554;2023-07-31T11:52:08;98958.22;;;35.96;31.21
43488;BME280;29078;41.932;25.554;2023-07-31T11:54:34;98952.81;;;36.00;31.34
43488;BME280;29078;41.932;25.554;2023-07-31T11:56:59;98955.41;;;36.12;32.04
43488;BME280;29078;41.932;25.554;2023-07-31T11:59:26;98947.88;;;36.09;29.95
43488;BME280;29078;41.932;25.554;2023-07-31T12:01:51;98945.56;;;36.11;30.77
43488;BME280;29078;41.932;25.554;2023-07-31T12:04:18;98947.72;;;36.21;31.11
43488;BME280;29078;41.932;25.554;2023-07-31T12:06:44;98939.63;;;36.28;31.06
43488;BME280;29078;41.932;25.554;2023-07-31T12:09:10;98938.31;;;36.41;29.98
43488;BME280;29078;41.932;25.554;2023-07-31T12:11:45;98932.31;;;36.55;29.44
43488;BME280;29078;41.932;25.554;2023-07-31T12:16:45;98923.53;;;36.69;30.16
43488;BME280;29078;41.932;25.554;2023-07-31T12:19:10;98928.34;;;36.75;30.02
43488;BME280;29078;41.932;25.554;2023-07-31T12:21:35;98913.88;;;36.78;30.15
43488;BME280;29078;41.932;25.554;2023-07-31T12:24:02;98913.88;;;36.78;30.10
43488;BME280;29078;41.932;25.554;2023-07-31T12:26:35;98905.00;;;36.88;29.97
43488;BME280;29078;41.932;25.554;2023-07-31T12:29:00;98905.59;;;37.01;29.32
43488;BME280;29078;41.932;25.554;2023-07-31T12:31:27;98910.00;;;37.06;29.93
43488;BME280;29078;41.932;25.554;2023-07-31T12:33:52;98896.28;;;37.09;29.31
43488;BME280;29078;41.932;25.554;2023-07-31T12:36:19;98902.16;;;37.08;29.79
43488;BME280;29078;41.932;25.554;2023-07-31T12:38:45;98901.56;;;37.18;29.71
43488;BME280;29078;41.932;25.554;2023-07-31T12:41:11;98910.34;;;36.78;30.24
43488;BME280;29078;41.932;25.554;2023-07-31T12:43:37;98909.53;;;36.16;30.46
43488;BME280;29078;41.932;25.554;2023-07-31T12:46:02;98908.78;;;35.61;30.99
43488;BME280;29078;41.932;25.554;2023-07-31T12:48:28;98902.38;;;35.22;31.16
43488;BME280;29078;41.932;25.554;2023-07-31T12:50:53;98896.38;;;34.85;31.25
43488;BME280;29078;41.932;25.554;2023-07-31T12:53:19;98902.03;;;34.60;31.98
43488;BME280;29078;41.932;25.554;2023-07-31T12:55:44;98910.19;;;34.29;32.31
43488;BME280;29078;41.932;25.554;2023-07-31T12:58:09;98900.91;;;34.05;32.65
43488;BME280;29078;41.932;25.554;2023-07-31T13:00:34;98913.53;;;33.82;33.53
43488;BME280;29078;41.932;25.554;2023-07-31T13:03:00;98891.44;;;33.63;33.35
43488;BME280;29078;41.932;25.554;2023-07-31T13:05:26;98888.03;;;33.41;34.09